Time;durP1;ratioP1;P1;durP2;ratioP2;P2;SDS_P1;SDS_P2;PMS_P1;PMS_P2;Temp;Humidity;BMP_temperature;BMP_pressure;BME280_temperature;BME280_humidity;BME280_pressure;Samples;Min_cycle;Max_cycle;Signal;HPM_P1;HPM_P2
2021/12/16 00:08:56;;;;;;;;;;;9.60;1.00;;;;;;5080409;28;19919;-82
2021/12/16 00:20:12;;;;;;;;;;;9.60;1.00;;;;;;5074035;28;19918;-82
2021/12/16 00:33:33;;;;;;;;;;;9.60;1.00;;;;;;5075768;28;19954;-82
2021/12/16 00:35:58;;;;;;;;;;;9.60;1.00;;;;;;5079872;28;19916;-82
2021/12/16 00:38:24;;;;;;;;;;;9.60;1.00;;;;;;5078309;28;20005;-82
2021/12/16 00:40:49;;;;;;;;;;;9.60;1.00;;;;;;5080253;28;19995;-82
2021/12/16 00:48:22;;;;;;;;;;;9.60;1.00;;;;;;5077104;28;19916;-82
2021/12/16 00:56:01;;;;;;;;;;;9.60;1.00;;;;;;5076753;28;19979;-82
2021/12/16 00:58:31;;;;;;;;;;;9.50;1.00;;;;;;5078114;28;19912;-83
2021/12/16 01:01:06;;;;;;;;;;;9.60;1.00;;;;;;5069840;28;19952;-82
2021/12/16 01:03:45;;;;;;;;;;;9.60;1.00;;;;;;5076669;28;19936;-82
2021/12/16 01:36:28;;;;;;;;;;;9.60;1.00;;;;;;5078172;28;19917;-82
2021/12/16 01:50:08;;;;;;;;;;;9.50;1.00;;;;;;5079920;28;19950;-82
2021/12/16 01:57:51;;;;;;;;;;;9.50;1.00;;;;;;5073752;28;19965;-82
2021/12/16 02:00:44;;;;;;;;;;;9.50;1.00;;;;;;5077343;28;19947;-82
2021/12/16 02:03:10;;;;;;;;;;;9.50;1.00;;;;;;5074334;28;19913;-82
2021/12/16 02:08:25;;;;;;;;;;;9.50;1.00;;;;;;5073535;28;19928;-82
2021/12/16 02:11:23;;;;;;;;;;;9.50;1.00;;;;;;5077452;28;19938;-82
2021/12/16 02:28:08;;;;;;;;;;;9.50;1.00;;;;;;5076161;28;19919;-82
2021/12/16 02:36:38;;;;;;;;;;;9.50;1.00;;;;;;5076770;28;19912;-82
2021/12/16 02:38:39;;;;;;;;;;;9.60;1.00;;;;;;5071155;28;19923;-82
2021/12/16 02:41:04;;;;;;;;;;;9.50;1.00;;;;;;5073316;28;19975;-82
2021/12/16 02:48:41;;;;;;;;;;;9.50;1.00;;;;;;5072303;28;19919;-82
2021/12/16 02:51:09;;;;;;;;;;;9.50;1.00;;;;;;5076493;28;19916;-82
2021/12/16 02:53:36;;;;;;;;;;;9.50;1.00;;;;;;5082237;28;19912;-82
2021/12/16 02:56:03;;;;;;;;;;;9.50;1.00;;;;;;5071645;28;19909;-82
2021/12/16 02:58:28;;;;;;;;;;;9.50;1.00;;;;;;5076030;28;19912;-82
2021/12/16 03:01:00;;;;;;;;;;;9.50;1.00;;;;;;5076045;28;19919;-82
2021/12/16 03:03:26;;;;;;;;;;;9.50;1.00;;;;;;5074614;28;19908;-82
2021/12/16 03:05:52;;;;;;;;;;;9.50;1.00;;;;;;5077445;28;19923;-82
2021/12/16 03:08:18;;;;;;;;;;;9.50;1.00;;;;;;5076437;28;19944;-81
2021/12/16 03:16:24;;;;;;;;;;;9.50;1.00;;;;;;5020780;28;19957;-82
2021/12/16 03:19:07;;;;;;;;;;;9.50;1.00;;;;;;5076538;28;19930;-82
2021/12/16 03:21:39;;;;;;;;;;;9.50;1.00;;;;;;5070276;28;19934;-82
2021/12/16 03:32:13;;;;;;;;;;;9.50;1.00;;;;;;5078823;28;20005;-82
2021/12/16 03:37:15;;;;;;;;;;;9.50;1.00;;;;;;5078593;28;19918;-82
2021/12/16 03:39:55;;;;;;;;;;;9.50;1.00;;;;;;5080313;28;20391;-82
2021/12/16 03:42:23;;;;;;;;;;;9.50;1.00;;;;;;5078682;28;19920;-82
2021/12/16 03:45:04;;;;;;;;;;;9.50;1.00;;;;;;5080096;28;19919;-82
2021/12/16 03:47:42;;;;;;;;;;;9.50;1.00;;;;;;5075359;28;19943;-82
2021/12/16 03:50:18;;;;;;;;;;;9.40;1.00;;;;;;5078867;28;20002;-82
2021/12/16 03:52:44;;;;;;;;;;;9.50;1.00;;;;;;5077487;28;19967;-82
2021/12/16 03:55:10;;;;;;;;;;;9.50;1.00;;;;;;5078193;28;19912;-82
2021/12/16 03:57:36;;;;;;;;;;;9.50;1.00;;;;;;5074976;28;20330;-82
2021/12/16 04:00:04;;;;;;;;;;;9.50;1.00;;;;;;5077981;28;19979;-82
2021/12/16 04:02:31;;;;;;;;;;;9.50;1.00;;;;;;5076158;28;20575;-82
2021/12/16 04:04:58;;;;;;;;;;;9.50;1.00;;;;;;5079786;28;19916;-82
2021/12/16 04:07:25;;;;;;;;;;;9.50;1.00;;;;;;5076588;28;19922;-82
2021/12/16 04:09:51;;;;;;;;;;;9.50;1.00;;;;;;5076774;28;19912;-82
2021/12/16 04:12:20;;;;;;;;;;;9.50;1.00;;;;;;5076239;28;19923;-82
2021/12/16 04:14:47;;;;;;;;;;;9.50;1.00;;;;;;5077294;28;20253;-82
2021/12/16 04:17:13;;;;;;;;;;;9.40;1.00;;;;;;5078283;28;19921;-82
2021/12/16 04:19:38;;;;;;;;;;;9.40;1.00;;;;;;5079678;28;19912;-82
2021/12/16 04:22:09;;;;;;;;;;;9.40;1.00;;;;;;5073117;28;20495;-82
2021/12/16 04:24:35;;;;;;;;;;;9.50;1.00;;;;;;5078876;28;20026;-82
2021/12/16 04:27:00;;;;;;;;;;;9.50;1.00;;;;;;5078942;28;19920;-82
2021/12/16 04:29:26;;;;;;;;;;;9.40;1.00;;;;;;5078810;28;19967;-83
2021/12/16 04:31:52;;;;;;;;;;;9.50;1.00;;;;;;5077129;28;19913;-82
2021/12/16 04:34:18;;;;;;;;;;;9.40;1.00;;;;;;5074546;28;19966;-83
2021/12/16 04:36:43;;;;;;;;;;;9.40;1.00;;;;;;5070296;28;19917;-82
2021/12/16 04:39:11;;;;;;;;;;;9.40;1.00;;;;;;5077744;28;19962;-83
2021/12/16 04:41:38;;;;;;;;;;;9.40;1.00;;;;;;5078451;28;19954;-83
2021/12/16 04:44:06;;;;;;;;;;;9.40;1.00;;;;;;5078365;28;19923;-83
2021/12/16 04:46:33;;;;;;;;;;;9.30;1.00;;;;;;5079297;28;19920;-83
2021/12/16 04:48:59;;;;;;;;;;;9.40;1.00;;;;;;5080144;28;19934;-83
2021/12/16 04:51:26;;;;;;;;;;;9.30;1.00;;;;;;5078617;28;19920;-83
2021/12/16 04:53:51;;;;;;;;;;;9.30;1.00;;;;;;5072901;28;20042;-83
2021/12/16 04:56:17;;;;;;;;;;;9.30;1.00;;;;;;5081566;28;19923;-83
2021/12/16 04:58:45;;;;;;;;;;;9.30;1.00;;;;;;5083269;28;19932;-83
2021/12/16 05:01:11;;;;;;;;;;;9.20;1.00;;;;;;5075305;28;20260;-83
2021/12/16 05:03:36;;;;;;;;;;;9.20;1.00;;;;;;5078962;28;19912;-83
2021/12/16 05:06:02;;;;;;;;;;;9.20;1.00;;;;;;5077331;28;19916;-83
2021/12/16 05:08:28;;;;;;;;;;;9.10;1.00;;;;;;5078126;28;19931;-83
2021/12/16 05:10:56;;;;;;;;;;;9.10;1.00;;;;;;5069670;28;19913;-82
2021/12/16 05:13:25;;;;;;;;;;;9.00;1.00;;;;;;5076790;28;19913;-83
2021/12/16 05:15:51;;;;;;;;;;;9.00;1.00;;;;;;5077106;28;20435;-82
2021/12/16 05:18:24;;;;;;;;;;;9.00;1.00;;;;;;5077432;28;19952;-82
2021/12/16 05:20:50;;;;;;;;;;;8.90;1.00;;;;;;5078684;28;19909;-82
2021/12/16 05:28:39;;;;;;;;;;;8.80;1.00;;;;;;5073875;28;19916;-82
2021/12/16 05:31:05;;;;;;;;;;;8.80;1.00;;;;;;5077698;28;19908;-82
2021/12/16 05:33:30;;;;;;;;;;;8.80;1.00;;;;;;5078031;28;19918;-82
2021/12/16 05:35:56;;;;;;;;;;;8.70;1.00;;;;;;5078862;28;19908;-82
2021/12/16 05:38:23;;;;;;;;;;;8.70;1.00;;;;;;5076402;28;19938;-82
2021/12/16 05:40:49;;;;;;;;;;;8.70;1.00;;;;;;5075704;28;19915;-83
2021/12/16 05:43:15;;;;;;;;;;;8.70;1.00;;;;;;5075895;28;19921;-82
2021/12/16 05:45:42;;;;;;;;;;;8.60;1.00;;;;;;5075283;28;19916;-82
2021/12/16 05:48:08;;;;;;;;;;;8.60;1.00;;;;;;5076448;28;19916;-82
2021/12/16 05:50:36;;;;;;;;;;;8.60;1.00;;;;;;5074600;28;19912;-83
2021/12/16 05:53:02;;;;;;;;;;;8.60;1.00;;;;;;5075181;28;19927;-82
2021/12/16 05:55:28;;;;;;;;;;;8.50;1.00;;;;;;5074739;28;19920;-82
2021/12/16 05:57:56;;;;;;;;;;;8.50;1.00;;;;;;5075161;28;20386;-83
2021/12/16 06:00:24;;;;;;;;;;;8.40;1.00;;;;;;5071132;28;19958;-83
2021/12/16 06:02:50;;;;;;;;;;;8.40;1.00;;;;;;5072667;28;20335;-82
2021/12/16 06:05:16;;;;;;;;;;;8.40;1.00;;;;;;5076318;28;19916;-83
2021/12/16 06:07:41;;;;;;;;;;;8.40;1.00;;;;;;5075101;28;19916;-83
2021/12/16 06:10:11;;;;;;;;;;;8.40;1.00;;;;;;5081300;28;19923;-82
2021/12/16 06:12:37;;;;;;;;;;;8.40;1.00;;;;;;5072700;28;20003;-85
2021/12/16 06:15:21;;;;;;;;;;;8.40;1.00;;;;;;5076967;28;19989;-83
2021/12/16 06:28:28;;;;;;;;;;;8.30;1.00;;;;;;5071456;28;19916;-83
2021/12/16 06:30:54;;;;;;;;;;;8.30;1.00;;;;;;5069893;28;19912;-83
2021/12/16 06:33:22;;;;;;;;;;;8.30;1.00;;;;;;5075831;28;19952;-83
2021/12/16 06:35:48;;;;;;;;;;;8.30;1.00;;;;;;5077769;28;19916;-83
2021/12/16 06:38:14;;;;;;;;;;;8.30;1.00;;;;;;5078751;28;19935;-82
2021/12/16 06:42:43;;;;;;;;;;;8.20;1.00;;;;;;5064362;28;19931;-83
2021/12/16 06:45:18;;;;;;;;;;;8.20;1.00;;;;;;5058352;28;19932;-83
2021/12/16 06:47:50;;;;;;;;;;;8.20;1.00;;;;;;5049242;28;19992;-83
2021/12/16 06:50:26;;;;;;;;;;;8.20;1.00;;;;;;5047378;28;19917;-83
2021/12/16 06:52:56;;;;;;;;;;;8.20;1.00;;;;;;5043233;28;19953;-83
2021/12/16 06:55:31;;;;;;;;;;;8.10;1.00;;;;;;5056970;28;20432;-83
2021/12/16 06:58:06;;;;;;;;;;;8.10;1.00;;;;;;5041653;28;19971;-83
2021/12/16 07:00:39;;;;;;;;;;;8.10;1.00;;;;;;5040047;28;19924;-82
2021/12/16 07:03:06;;;;;;;;;;;8.00;1.00;;;;;;5034261;28;19925;-82
2021/12/16 07:05:37;;;;;;;;;;;8.00;1.00;;;;;;5041380;28;19992;-83
2021/12/16 07:08:04;;;;;;;;;;;8.10;1.80;;;;;;5057519;28;19913;-83
2021/12/16 07:10:29;;;;;;;;;;;8.10;1.60;;;;;;5037461;28;19917;-83
2021/12/16 07:12:56;;;;;;;;;;;8.20;1.40;;;;;;5042188;28;19920;-83
2021/12/16 07:15:27;;;;;;;;;;;8.30;1.00;;;;;;5053041;28;19913;-83
2021/12/16 07:17:53;;;;;;;;;;;8.30;1.00;;;;;;5052890;28;19919;-82
2021/12/16 07:20:21;;;;;;;;;;;8.30;1.00;;;;;;5041763;28;19976;-83
2021/12/16 07:22:46;;;;;;;;;;;8.30;1.00;;;;;;5046467;28;19923;-83
2021/12/16 07:25:12;;;;;;;;;;;8.20;1.00;;;;;;5043597;28;21127;-83
2021/12/16 07:27:37;;;;;;;;;;;8.20;1.00;;;;;;5050822;28;19945;-83
2021/12/16 07:30:05;;;;;;;;;;;8.30;1.00;;;;;;5045004;28;19910;-82
2021/12/16 07:32:30;;;;;;;;;;;8.30;1.00;;;;;;5048276;28;20374;-83
2021/12/16 07:34:56;;;;;;;;;;;8.30;1.00;;;;;;5047464;28;19919;-84
2021/12/16 07:37:21;;;;;;;;;;;8.30;1.00;;;;;;5044559;28;19913;-83
2021/12/16 07:39:49;;;;;;;;;;;8.30;1.00;;;;;;5046161;28;19940;-82
2021/12/16 07:42:23;;;;;;;;;;;8.30;1.00;;;;;;5061393;28;19925;-84
2021/12/16 07:44:48;;;;;;;;;;;8.30;1.00;;;;;;5069811;28;19912;-83
2021/12/16 07:47:14;;;;;;;;;;;8.40;1.00;;;;;;5049965;28;20573;-83
2021/12/16 07:49:41;;;;;;;;;;;8.40;1.00;;;;;;5072671;28;19909;-83
2021/12/16 07:52:07;;;;;;;;;;;8.40;1.00;;;;;;5055497;28;19920;-83
2021/12/16 07:54:33;;;;;;;;;;;8.40;1.00;;;;;;5044814;28;20297;-83
2021/12/16 07:56:59;;;;;;;;;;;8.40;1.00;;;;;;5048151;28;19920;-83
2021/12/16 07:59:25;;;;;;;;;;;8.40;1.00;;;;;;5039470;28;19988;-83
2021/12/16 08:01:51;;;;;;;;;;;8.50;1.00;;;;;;5045203;28;19921;-83
2021/12/16 08:04:20;;;;;;;;;;;8.50;1.00;;;;;;5047567;28;20330;-82
2021/12/16 08:06:48;;;;;;;;;;;8.50;1.00;;;;;;5049739;28;20381;-82
2021/12/16 08:09:13;;;;;;;;;;;8.50;1.00;;;;;;5057848;28;20293;-82
2021/12/16 08:11:40;;;;;;;;;;;8.60;1.00;;;;;;5049868;28;19912;-82
2021/12/16 08:14:05;;;;;;;;;;;8.70;1.00;;;;;;5044448;28;20455;-82
2021/12/16 08:16:31;;;;;;;;;;;8.80;1.00;;;;;;5055241;28;19916;-83
2021/12/16 08:18:57;;;;;;;;;;;8.80;1.00;;;;;;5050242;28;19921;-80
2021/12/16 08:21:27;;;;;;;;;;;8.90;1.00;;;;;;5048548;28;20016;-82
2021/12/16 08:23:53;;;;;;;;;;;9.00;1.00;;;;;;5051390;28;19913;-82
2021/12/16 08:26:19;;;;;;;;;;;9.10;1.00;;;;;;5045309;28;19966;-82
2021/12/16 08:28:44;;;;;;;;;;;9.10;1.00;;;;;;5041953;28;19913;-82
2021/12/16 08:31:10;;;;;;;;;;;9.20;1.00;;;;;;5050497;28;19913;-82
2021/12/16 08:33:37;;;;;;;;;;;9.30;1.00;;;;;;5055206;28;19972;-82
2021/12/16 08:36:04;;;;;;;;;;;9.30;1.00;;;;;;5046154;28;19921;-85
2021/12/16 08:38:30;;;;;;;;;;;9.40;1.00;;;;;;5059402;28;19912;-84
2021/12/16 08:40:57;;;;;;;;;;;9.50;1.00;;;;;;5036740;28;19960;-83
2021/12/16 08:43:23;;;;;;;;;;;9.50;1.00;;;;;;5060474;28;19917;-83
2021/12/16 08:45:48;;;;;;;;;;;9.60;1.00;;;;;;5026323;28;20361;-84
2021/12/16 08:48:15;;;;;;;;;;;9.70;1.00;;;;;;5057351;28;20363;-85
2021/12/16 08:50:43;;;;;;;;;;;9.80;1.00;;;;;;5062386;28;20984;-84
2021/12/16 08:53:09;;;;;;;;;;;10.00;1.00;;;;;;5042277;28;19913;-84
2021/12/16 08:55:36;;;;;;;;;;;10.00;1.00;;;;;;5040784;28;19917;-88
2021/12/16 08:58:02;;;;;;;;;;;10.20;1.00;;;;;;5048551;28;20366;-85
2021/12/16 09:00:29;;;;;;;;;;;10.30;1.00;;;;;;5057591;28;19912;-85
2021/12/16 09:02:55;;;;;;;;;;;10.30;1.00;;;;;;5052885;28;19964;-85
2021/12/16 09:05:21;;;;;;;;;;;10.30;1.00;;;;;;5055658;28;20023;-82
2021/12/16 09:07:48;;;;;;;;;;;10.40;1.00;;;;;;5043899;28;19912;-85
2021/12/16 09:10:20;;;;;;;;;;;10.40;1.00;;;;;;5035293;28;19920;-83
2021/12/16 09:12:53;;;;;;;;;;;10.40;1.00;;;;;;5040648;28;19992;-84
2021/12/16 09:15:21;;;;;;;;;;;10.60;1.00;;;;;;5043736;28;20347;-85
2021/12/16 09:17:46;;;;;;;;;;;10.70;1.00;;;;;;5060350;28;19915;-83
2021/12/16 09:20:12;;;;;;;;;;;10.80;1.00;;;;;;5053047;28;20984;-84
2021/12/16 09:22:38;;;;;;;;;;;11.00;99.90;;;;;;5056605;28;19928;-84
2021/12/16 09:25:04;;;;;;;;;;;11.10;99.90;;;;;;5056283;28;20353;-83
2021/12/16 09:27:29;;;;;;;;;;;11.10;99.90;;;;;;5055232;28;20070;-83
2021/12/16 09:29:55;;;;;;;;;;;11.20;99.90;;;;;;5058331;28;19956;-83
2021/12/16 09:32:23;;;;;;;;;;;11.30;99.90;;;;;;5052606;28;19908;-83
2021/12/16 09:34:50;;;;;;;;;;;11.40;99.90;;;;;;5050043;28;19959;-83
2021/12/16 09:37:15;;;;;;;;;;;11.50;99.90;;;;;;5050432;28;20292;-83
2021/12/16 09:39:41;;;;;;;;;;;11.50;99.90;;;;;;5046033;28;19940;-85
2021/12/16 09:42:07;;;;;;;;;;;11.60;99.90;;;;;;5055361;28;19913;-83
2021/12/16 09:44:33;;;;;;;;;;;11.60;99.90;;;;;;5053232;28;20398;-84
2021/12/16 09:47:00;;;;;;;;;;;11.70;48.10;;;;;;5051882;28;19920;-84
2021/12/16 09:49:25;;;;;;;;;;;11.70;19.90;;;;;;5052567;28;20037;-84
2021/12/16 09:51:52;;;;;;;;;;;11.80;1.00;;;;;;5053023;28;19935;-84
2021/12/16 09:54:21;;;;;;;;;;;11.80;1.00;;;;;;5049742;28;19970;-84
2021/12/16 09:56:47;;;;;;;;;;;11.90;1.00;;;;;;5054022;28;19909;-83
2021/12/16 09:59:14;;;;;;;;;;;11.90;1.00;;;;;;5056852;28;19904;-84
2021/12/16 10:01:40;;;;;;;;;;;12.00;1.00;;;;;;5035997;28;19962;-84
2021/12/16 10:04:07;;;;;;;;;;;12.00;1.00;;;;;;5047563;28;19905;-84
2021/12/16 10:06:35;;;;;;;;;;;12.00;1.00;;;;;;5044998;28;20329;-84
2021/12/16 10:09:03;;;;;;;;;;;12.00;1.00;;;;;;5042932;28;19916;-84
2021/12/16 10:11:28;;;;;;;;;;;12.10;1.00;;;;;;5049103;28;20186;-84
2021/12/16 10:19:07;;;;;;;;;;;12.10;1.00;;;;;;5054078;28;19943;-84
2021/12/16 10:21:32;;;;;;;;;;;12.20;99.90;;;;;;5051725;28;20361;-84
2021/12/16 10:23:58;;;;;;;;;;;12.30;99.90;;;;;;5040091;28;19909;-84
2021/12/16 10:26:24;;;;;;;;;;;12.30;99.90;;;;;;5051169;28;19917;-83
2021/12/16 10:28:52;;;;;;;;;;;12.40;99.90;;;;;;5054103;28;19948;-84
2021/12/16 10:31:28;;;;;;;;;;;12.40;99.90;;;;;;5046664;28;19905;-84
2021/12/16 10:33:54;;;;;;;;;;;12.60;99.90;;;;;;5039403;28;19913;-84
2021/12/16 10:36:29;;;;;;;;;;;12.70;35.90;;;;;;5054626;28;20384;-85
2021/12/16 10:38:55;;;;;;;;;;;12.90;1.00;;;;;;5043197;28;19912;-84
2021/12/16 10:41:26;;;;;;;;;;;13.10;99.90;;;;;;5044916;28;19913;-84
2021/12/16 10:44:05;;;;;;;;;;;13.10;1.00;;;;;;5050266;28;19935;-84
2021/12/16 10:46:32;;;;;;;;;;;13.20;75.80;;;;;;5038470;28;19920;-85
2021/12/16 10:49:00;;;;;;;;;;;13.40;99.90;;;;;;5051775;28;19944;-84
2021/12/16 10:51:27;;;;;;;;;;;13.40;99.90;;;;;;5048148;28;19916;-84
2021/12/16 10:53:57;;;;;;;;;;;13.40;1.00;;;;;;5043927;28;19916;-85
2021/12/16 10:56:43;;;;;;;;;;;13.30;1.00;;;;;;5031969;28;20325;-84
2021/12/16 10:59:11;;;;;;;;;;;13.30;1.00;;;;;;5054400;28;20546;-84
2021/12/16 11:02:03;;;;;;;;;;;13.20;1.00;;;;;;5046601;28;19920;-84
2021/12/16 11:04:34;;;;;;;;;;;13.20;1.00;;;;;;5043644;28;19979;-84
2021/12/16 11:07:05;;;;;;;;;;;13.20;1.00;;;;;;5050498;28;20467;-84
2021/12/16 11:09:31;;;;;;;;;;;13.40;1.00;;;;;;5050465;28;19913;-84
2021/12/16 11:12:14;;;;;;;;;;;13.60;99.90;;;;;;5043237;28;19908;-84
2021/12/16 11:14:40;;;;;;;;;;;13.90;99.90;;;;;;5041072;28;19915;-84
2021/12/16 11:17:08;;;;;;;;;;;14.50;1.00;;;;;;5049950;28;19912;-84
2021/12/16 11:19:37;;;;;;;;;;;14.90;1.00;;;;;;5045479;28;19908;-84
2021/12/16 11:22:03;;;;;;;;;;;15.00;99.90;;;;;;5042403;28;19989;-85
2021/12/16 11:24:29;;;;;;;;;;;15.10;4.80;;;;;;5052434;28;19905;-84
2021/12/16 11:26:55;;;;;;;;;;;15.30;1.00;;;;;;5053721;28;19913;-85
2021/12/16 11:29:27;;;;;;;;;;;15.40;1.00;;;;;;5045984;28;20403;-84
2021/12/16 11:31:55;;;;;;;;;;;15.60;1.00;;;;;;5044475;28;19913;-84
2021/12/16 11:34:21;;;;;;;;;;;15.70;99.90;;;;;;5055695;28;19913;-84
2021/12/16 11:36:49;;;;;;;;;;;15.70;99.90;;;;;;5056635;28;20381;-84
2021/12/16 11:39:19;;;;;;;;;;;15.60;99.90;;;;;;5051996;28;19917;-84
2021/12/16 11:41:52;;;;;;;;;;;15.50;99.90;;;;;;5058316;28;19967;-84
2021/12/16 11:44:21;;;;;;;;;;;15.40;99.90;;;;;;5057314;28;19917;-84
2021/12/16 11:46:49;;;;;;;;;;;15.40;99.90;;;;;;5056413;28;19917;-84
2021/12/16 11:49:15;;;;;;;;;;;15.30;99.90;;;;;;5062469;28;19913;-83
2021/12/16 11:51:43;;;;;;;;;;;15.20;99.90;;;;;;5054493;28;19971;-84
2021/12/16 11:54:26;;;;;;;;;;;15.00;99.90;;;;;;5058303;28;20369;-84
2021/12/16 11:56:55;;;;;;;;;;;14.90;99.90;;;;;;5059640;28;20373;-84
2021/12/16 11:59:22;;;;;;;;;;;14.60;99.90;;;;;;5055523;28;19913;-84
2021/12/16 12:01:48;;;;;;;;;;;14.60;99.90;;;;;;5058038;28;20440;-84
2021/12/16 12:04:14;;;;;;;;;;;14.60;99.90;;;;;;5050208;28;19917;-85
2021/12/16 12:06:43;;;;;;;;;;;14.60;99.90;;;;;;5054609;28;20054;-85
2021/12/16 12:09:09;;;;;;;;;;;14.60;99.90;;;;;;5058710;28;19909;-84
2021/12/16 12:11:36;;;;;;;;;;;14.70;99.90;;;;;;5034017;28;19913;-84
2021/12/16 12:14:03;;;;;;;;;;;14.60;99.90;;;;;;5061612;28;19932;-85
2021/12/16 12:16:34;;;;;;;;;;;14.70;99.90;;;;;;5063396;28;19912;-84
2021/12/16 12:19:09;;;;;;;;;;;14.70;99.90;;;;;;5047777;28;19913;-83
2021/12/16 12:21:39;;;;;;;;;;;14.70;99.90;;;;;;5038268;28;19978;-84
2021/12/16 12:24:07;;;;;;;;;;;14.80;99.90;;;;;;5036103;28;19971;-84
2021/12/16 12:26:34;;;;;;;;;;;14.80;99.90;;;;;;5053321;28;19909;-84
2021/12/16 12:29:03;;;;;;;;;;;14.90;99.90;;;;;;5058408;28;19921;-84
2021/12/16 12:31:30;;;;;;;;;;;14.90;99.90;;;;;;5054155;28;19958;-84
2021/12/16 12:33:55;;;;;;;;;;;14.80;99.90;;;;;;5053429;28;20011;-84
2021/12/16 12:36:21;;;;;;;;;;;14.80;99.90;;;;;;5053581;28;19978;-84
2021/12/16 12:38:47;;;;;;;;;;;14.80;99.90;;;;;;5050849;28;19916;-84
2021/12/16 12:41:13;;;;;;;;;;;14.90;99.90;;;;;;5051381;28;20030;-83
2021/12/16 12:43:38;;;;;;;;;;;14.90;99.90;;;;;;5053492;28;19919;-84
2021/12/16 12:46:05;;;;;;;;;;;14.90;99.90;;;;;;5049723;28;19957;-85
2021/12/16 12:48:35;;;;;;;;;;;14.90;99.90;;;;;;5054744;28;20385;-84
2021/12/16 12:51:01;;;;;;;;;;;14.90;99.90;;;;;;5058355;28;19944;-84
2021/12/16 12:53:31;;;;;;;;;;;15.10;99.90;;;;;;5051562;28;19920;-85
2021/12/16 12:56:07;;;;;;;;;;;15.20;99.90;;;;;;5062806;28;19919;-84
2021/12/16 12:58:34;;;;;;;;;;;15.80;99.90;;;;;;5056579;28;20027;-84
2021/12/16 13:01:02;;;;;;;;;;;16.50;51.30;;;;;;5055882;28;19916;-83
2021/12/16 13:03:30;;;;;;;;;;;17.00;5.60;;;;;;5062995;28;19908;-84
2021/12/16 13:05:57;;;;;;;;;;;17.00;1.00;;;;;;5058038;28;19999;-84
2021/12/16 13:08:31;;;;;;;;;;;16.80;1.00;;;;;;5058112;28;20292;-83
2021/12/16 13:10:59;;;;;;;;;;;16.80;1.00;;;;;;5057196;28;19913;-84
2021/12/16 13:13:32;;;;;;;;;;;17.20;1.00;;;;;;5058204;28;19919;-84
2021/12/16 13:27:37;;;;;;;;;;;17.30;1.00;;;;;;5076702;28;19904;-82
2021/12/16 13:32:39;;;;;;;;;;;17.10;1.00;;;;;;5057203;28;20375;-83
2021/12/16 13:37:37;;;;;;;;;;;17.50;1.00;;;;;;5051050;28;19912;-83
2021/12/16 13:40:06;;;;;;;;;;;17.70;1.00;;;;;;5041085;28;19916;-83
2021/12/16 13:42:43;;;;;;;;;;;17.80;1.00;;;;;;5057032;28;19928;-82
2021/12/16 13:45:12;;;;;;;;;;;17.90;1.00;;;;;;5037961;28;19920;-82
2021/12/16 14:02:05;;;;;;;;;;;17.20;1.00;;;;;;5037357;28;20344;-82
2021/12/16 14:04:41;;;;;;;;;;;16.70;1.00;;;;;;5055169;28;19963;-82
2021/12/16 14:10:19;;;;;;;;;;;16.10;1.00;;;;;;5052030;28;19912;-82
2021/12/16 14:14:06;;;;;;;;;;;15.90;1.00;;;;;;5035730;28;20392;-83
2021/12/16 14:16:02;;;;;;;;;;;15.60;1.00;;;;;;5055847;28;19919;-81
2021/12/16 14:24:25;;;;;;;;;;;15.00;1.00;;;;;;5046732;28;19966;-81
2021/12/16 14:27:21;;;;;;;;;;;14.90;1.00;;;;;;5048667;28;20381;-81
2021/12/16 14:33:33;;;;;;;;;;;14.60;1.00;;;;;;5066733;28;19920;-81
2021/12/16 14:35:27;;;;;;;;;;;14.50;1.00;;;;;;5067979;28;20622;-81
2021/12/16 14:41:06;;;;;;;;;;;14.30;1.00;;;;;;5039799;28;19919;-81
2021/12/16 14:43:51;;;;;;;;;;;14.20;1.00;;;;;;5037156;28;19966;-80
2021/12/16 14:46:22;;;;;;;;;;;14.10;1.00;;;;;;5056770;28;19913;-80
2021/12/16 14:48:48;;;;;;;;;;;14.00;1.00;;;;;;5058804;28;19912;-81
2021/12/16 14:51:15;;;;;;;;;;;13.90;1.00;;;;;;5074107;28;19912;-81
2021/12/16 14:53:48;;;;;;;;;;;13.90;1.00;;;;;;5076354;28;19977;-80
2021/12/16 14:56:25;;;;;;;;;;;13.80;1.00;;;;;;5076228;28;19916;-81
2021/12/16 14:58:52;;;;;;;;;;;13.70;1.00;;;;;;5076141;28;20369;-80
2021/12/16 15:01:24;;;;;;;;;;;13.60;1.00;;;;;;5042804;28;20293;-81
2021/12/16 15:03:50;;;;;;;;;;;13.50;1.00;;;;;;5056551;28;19931;-80
2021/12/16 15:06:31;;;;;;;;;;;13.40;1.00;;;;;;5043336;28;19908;-81
2021/12/16 15:09:10;;;;;;;;;;;13.40;72.10;;;;;;5059861;28;19928;-81
2021/12/16 15:11:46;;;;;;;;;;;13.30;99.90;;;;;;5058368;28;20254;-80
2021/12/16 15:15:13;;;;;;;;;;;13.20;99.90;;;;;;5059903;28;19916;-81
2021/12/16 15:36:35;;;;;;;;;;;12.80;1.00;;;;;;5057234;28;19920;-82
2021/12/16 15:44:48;;;;;;;;;;;12.80;58.40;;;;;;5077248;28;20383;-81
2021/12/16 15:47:14;;;;;;;;;;;12.70;99.90;;;;;;5080225;28;19955;-80
2021/12/16 15:49:39;;;;;;;;;;;12.70;99.90;;;;;;5079904;28;19908;-80
2021/12/16 15:52:05;;;;;;;;;;;12.70;1.00;;;;;;5061893;28;19915;-80
2021/12/16 15:54:37;;;;;;;;;;;12.70;1.00;;;;;;5064862;28;19917;-80
2021/12/16 15:57:03;;;;;;;;;;;12.70;99.90;;;;;;5057992;28;19976;-80
2021/12/16 15:59:29;;;;;;;;;;;12.70;99.90;;;;;;5051727;28;20316;-80
2021/12/16 16:01:55;;;;;;;;;;;12.70;99.90;;;;;;5051960;28;20012;-79
2021/12/16 16:04:28;;;;;;;;;;;12.60;99.90;;;;;;5040990;28;20004;-80
2021/12/16 16:06:59;;;;;;;;;;;12.60;99.90;;;;;;5060093;28;19939;-80
2021/12/16 16:09:27;;;;;;;;;;;12.50;99.90;;;;;;5055858;28;20425;-81
2021/12/16 16:11:53;;;;;;;;;;;12.40;99.90;;;;;;5048373;28;19912;-84
2021/12/16 16:14:21;;;;;;;;;;;12.40;99.90;;;;;;5058227;28;19909;-83
2021/12/16 16:16:49;;;;;;;;;;;12.30;1.00;;;;;;5058572;28;19976;-83
2021/12/16 16:19:20;;;;;;;;;;;12.30;99.90;;;;;;5058354;28;19915;-83
2021/12/16 16:21:48;;;;;;;;;;;12.30;1.00;;;;;;5059258;28;19924;-82
2021/12/16 16:24:20;;;;;;;;;;;12.20;46.40;;;;;;5048646;28;19917;-81
2021/12/16 16:26:47;;;;;;;;;;;12.20;99.90;;;;;;5054637;28;19910;-82
2021/12/16 16:29:14;;;;;;;;;;;12.20;99.90;;;;;;5048137;28;19921;-82
2021/12/16 16:31:41;;;;;;;;;;;12.20;1.00;;;;;;5058151;28;19999;-83
2021/12/16 16:34:14;;;;;;;;;;;12.20;1.00;;;;;;5059295;28;19913;-83
2021/12/16 16:36:44;;;;;;;;;;;12.20;1.00;;;;;;5061934;28;19913;-83
2021/12/16 16:39:11;;;;;;;;;;;12.10;1.00;;;;;;5036117;28;19972;-82
2021/12/16 16:41:38;;;;;;;;;;;12.10;1.00;;;;;;5058564;28;20046;-82
2021/12/16 16:44:07;;;;;;;;;;;12.10;1.00;;;;;;5054939;28;19917;-83
2021/12/16 16:46:44;;;;;;;;;;;12.10;69.40;;;;;;5061330;28;19917;-83
2021/12/16 16:49:13;;;;;;;;;;;12.10;98.90;;;;;;5060332;28;20319;-84
2021/12/16 16:51:38;;;;;;;;;;;12.10;1.00;;;;;;5056847;28;19920;-84
2021/12/16 16:54:07;;;;;;;;;;;12.10;1.00;;;;;;5056710;28;19919;-83
2021/12/16 16:56:53;;;;;;;;;;;12.10;1.00;;;;;;5059655;28;19920;-84
2021/12/16 16:59:25;;;;;;;;;;;12.10;1.00;;;;;;5059509;28;19920;-83
2021/12/16 17:01:50;;;;;;;;;;;12.00;99.90;;;;;;5058866;28;19958;-84
2021/12/16 17:04:17;;;;;;;;;;;12.00;1.00;;;;;;5063257;28;19946;-84
2021/12/16 17:06:52;;;;;;;;;;;12.00;1.00;;;;;;5057889;28;19913;-84
2021/12/16 17:09:17;;;;;;;;;;;12.00;1.00;;;;;;5038737;28;20044;-83
2021/12/16 17:11:44;;;;;;;;;;;11.90;99.90;;;;;;5062183;28;19916;-84
2021/12/16 17:14:14;;;;;;;;;;;11.90;1.00;;;;;;5058323;28;19913;-83
2021/12/16 17:19:32;;;;;;;;;;;11.90;1.00;;;;;;5057327;28;19923;-84
2021/12/16 17:21:57;;;;;;;;;;;11.90;1.00;;;;;;5059991;28;20241;-84
2021/12/16 17:24:25;;;;;;;;;;;11.80;4.70;;;;;;5059632;28;19956;-83
2021/12/16 17:26:57;;;;;;;;;;;11.80;99.90;;;;;;5049038;28;19935;-84
2021/12/16 17:29:30;;;;;;;;;;;11.80;99.90;;;;;;5054337;28;20365;-82
2021/12/16 17:31:58;;;;;;;;;;;11.80;99.90;;;;;;5063884;28;19913;-84
2021/12/16 17:34:23;;;;;;;;;;;11.80;99.90;;;;;;5053306;28;19963;-83
2021/12/16 17:36:55;;;;;;;;;;;11.80;99.90;;;;;;5041519;28;19913;-83
2021/12/16 17:39:22;;;;;;;;;;;11.80;99.90;;;;;;5051512;28;19938;-83
2021/12/16 17:41:56;;;;;;;;;;;11.80;99.90;;;;;;5056887;28;19995;-83
2021/12/16 17:44:22;;;;;;;;;;;11.80;99.90;;;;;;5053338;28;20366;-83
2021/12/16 17:46:52;;;;;;;;;;;11.80;99.90;;;;;;5050078;28;19920;-82
2021/12/16 17:49:17;;;;;;;;;;;11.90;99.90;;;;;;5039323;28;19909;-84
2021/12/16 17:51:43;;;;;;;;;;;11.90;99.90;;;;;;5046803;28;20431;-83
2021/12/16 17:54:09;;;;;;;;;;;11.80;99.90;;;;;;5056385;28;19909;-83
2021/12/16 17:56:35;;;;;;;;;;;11.90;1.00;;;;;;5056850;28;20396;-83
2021/12/16 17:59:03;;;;;;;;;;;11.80;1.00;;;;;;5058996;28;19909;-83
2021/12/16 18:01:36;;;;;;;;;;;11.80;1.00;;;;;;5050274;28;19940;-83
2021/12/16 18:04:04;;;;;;;;;;;11.80;1.00;;;;;;5055310;28;19913;-84
2021/12/16 18:06:31;;;;;;;;;;;11.80;1.00;;;;;;5066030;28;19916;-83
2021/12/16 18:09:09;;;;;;;;;;;11.90;1.00;;;;;;5057806;28;19913;-84
2021/12/16 18:11:35;;;;;;;;;;;11.90;1.00;;;;;;5049201;28;19920;-84
2021/12/16 18:14:03;;;;;;;;;;;11.80;1.00;;;;;;5046004;28;19967;-84
2021/12/16 18:16:49;;;;;;;;;;;11.80;1.00;;;;;;5040856;28;19966;-84
2021/12/16 18:19:18;;;;;;;;;;;11.70;1.00;;;;;;5055336;28;19919;-84
2021/12/16 18:21:45;;;;;;;;;;;11.70;99.90;;;;;;5056304;28;19924;-84
2021/12/16 18:24:11;;;;;;;;;;;11.60;99.90;;;;;;5050806;28;19967;-83
2021/12/16 18:26:38;;;;;;;;;;;11.60;38.90;;;;;;5064540;28;19913;-83